sensor_id;sensor_type;location;lat;lon;timestamp;P1;durP1;ratioP1;P2;durP2;ratioP2
22711;SDS011;11523;50.390;8.072;2024-02-28T00:01:07;42.80;;;31.67;;
22711;SDS011;11523;50.390;8.072;2024-02-28T00:03:33;46.95;;;32.15;;
22711;SDS011;11523;50.390;8.072;2024-02-28T00:05:59;45.20;;;33.50;;
22711;SDS011;11523;50.390;8.072;2024-02-28T00:08:25;46.17;;;33.03;;
22711;SDS011;11523;50.390;8.072;2024-02-28T00:10:57;49.58;;;34.95;;
22711;SDS011;11523;50.390;8.072;2024-02-28T00:13:23;46.10;;;33.28;;
22711;SDS011;11523;50.390;8.072;2024-02-28T00:15:49;49.78;;;34.42;;
22711;SDS011;11523;50.390;8.072;2024-02-28T00:18:16;49.70;;;34.45;;
22711;SDS011;11523;50.390;8.072;2024-02-28T00:20:43;50.15;;;34.35;;
22711;SDS011;11523;50.390;8.072;2024-02-28T00:23:09;47.05;;;34.25;;
22711;SDS011;11523;50.390;8.072;2024-02-28T00:25:35;50.67;;;34.13;;
22711;SDS011;11523;50.390;8.072;2024-02-28T00:28:01;50.85;;;36.20;;
22711;SDS011;11523;50.390;8.072;2024-02-28T00:30:28;48.00;;;33.83;;
22711;SDS011;11523;50.390;8.072;2024-02-28T00:32:54;46.70;;;32.63;;
22711;SDS011;11523;50.390;8.072;2024-02-28T00:35:20;49.70;;;33.78;;
22711;SDS011;11523;50.390;8.072;2024-02-28T00:37:46;49.78;;;34.22;;
22711;SDS011;11523;50.390;8.072;2024-02-28T00:40:12;47.90;;;33.85;;
22711;SDS011;11523;50.390;8.072;2024-02-28T00:42:38;46.08;;;32.03;;
22711;SDS011;11523;50.390;8.072;2024-02-28T00:45:04;53.30;;;34.15;;
22711;SDS011;11523;50.390;8.072;2024-02-28T00:47:30;48.22;;;33.58;;
22711;SDS011;11523;50.390;8.072;2024-02-28T00:49:56;47.10;;;33.40;;
22711;SDS011;11523;50.390;8.072;2024-02-28T00:52:22;45.03;;;32.28;;
22711;SDS011;11523;50.390;8.072;2024-02-28T00:54:50;49.90;;;34.13;;
22711;SDS011;11523;50.390;8.072;2024-02-28T00:57:16;50.65;;;34.08;;
22711;SDS011;11523;50.390;8.072;2024-02-28T00:59:42;50.22;;;33.78;;
22711;SDS011;11523;50.390;8.072;2024-02-28T01:02:09;51.85;;;34.85;;
22711;SDS011;11523;50.390;8.072;2024-02-28T01:04:35;49.75;;;35.03;;
22711;SDS011;11523;50.390;8.072;2024-02-28T01:07:01;50.47;;;33.35;;
22711;SDS011;11523;50.390;8.072;2024-02-28T01:09:27;51.38;;;34.20;;
22711;SDS011;11523;50.390;8.072;2024-02-28T01:11:53;50.95;;;33.58;;
22711;SDS011;11523;50.390;8.072;2024-02-28T01:14:19;49.40;;;33.80;;
22711;SDS011;11523;50.390;8.072;2024-02-28T01:16:45;50.90;;;33.20;;
22711;SDS011;11523;50.390;8.072;2024-02-28T01:19:11;51.63;;;34.08;;
22711;SDS011;11523;50.390;8.072;2024-02-28T01:21:38;52.67;;;34.22;;
22711;SDS011;11523;50.390;8.072;2024-02-28T01:24:04;48.97;;;33.00;;
22711;SDS011;11523;50.390;8.072;2024-02-28T01:26:31;51.15;;;34.30;;
22711;SDS011;11523;50.390;8.072;2024-02-28T01:28:57;52.90;;;33.97;;
22711;SDS011;11523;50.390;8.072;2024-02-28T01:31:23;58.70;;;36.00;;
22711;SDS011;11523;50.390;8.072;2024-02-28T01:33:48;53.42;;;34.63;;
22711;SDS011;11523;50.390;8.072;2024-02-28T01:36:14;52.35;;;34.88;;
22711;SDS011;11523;50.390;8.072;2024-02-28T01:38:40;52.40;;;34.88;;
22711;SDS011;11523;50.390;8.072;2024-02-28T01:41:06;54.55;;;33.83;;
22711;SDS011;11523;50.390;8.072;2024-02-28T01:43:33;53.72;;;34.15;;
22711;SDS011;11523;50.390;8.072;2024-02-28T01:46:03;53.40;;;35.13;;
22711;SDS011;11523;50.390;8.072;2024-02-28T01:48:30;53.55;;;31.08;;
22711;SDS011;11523;50.390;8.072;2024-02-28T01:50:57;54.97;;;36.03;;
22711;SDS011;11523;50.390;8.072;2024-02-28T01:53:23;57.90;;;35.25;;
22711;SDS011;11523;50.390;8.072;2024-02-28T01:55:49;53.83;;;35.35;;
22711;SDS011;11523;50.390;8.072;2024-02-28T01:58:16;57.42;;;35.35;;
22711;SDS011;11523;50.390;8.072;2024-02-28T02:00:42;56.58;;;35.40;;
22711;SDS011;11523;50.390;8.072;2024-02-28T02:03:09;54.15;;;34.17;;
22711;SDS011;11523;50.390;8.072;2024-02-28T02:05:35;55.35;;;35.80;;
22711;SDS011;11523;50.390;8.072;2024-02-28T02:08:01;59.85;;;35.78;;
22711;SDS011;11523;50.390;8.072;2024-02-28T02:10:27;58.05;;;35.25;;
22711;SDS011;11523;50.390;8.072;2024-02-28T02:12:53;52.60;;;32.95;;
22711;SDS011;11523;50.390;8.072;2024-02-28T02:15:19;57.85;;;35.47;;
22711;SDS011;11523;50.390;8.072;2024-02-28T02:17:45;59.55;;;36.50;;
22711;SDS011;11523;50.390;8.072;2024-02-28T02:20:11;57.08;;;29.85;;
22711;SDS011;11523;50.390;8.072;2024-02-28T02:22:39;55.05;;;35.58;;
22711;SDS011;11523;50.390;8.072;2024-02-28T02:25:05;54.95;;;33.67;;
22711;SDS011;11523;50.390;8.072;2024-02-28T02:27:32;53.55;;;34.10;;
22711;SDS011;11523;50.390;8.072;2024-02-28T02:29:58;54.15;;;33.85;;
22711;SDS011;11523;50.390;8.072;2024-02-28T02:32:24;54.03;;;33.47;;
22711;SDS011;11523;50.390;8.072;2024-02-28T02:34:50;52.22;;;31.73;;
22711;SDS011;11523;50.390;8.072;2024-02-28T02:37:16;54.50;;;34.63;;
22711;SDS011;11523;50.390;8.072;2024-02-28T02:39:42;56.55;;;34.13;;
22711;SDS011;11523;50.390;8.072;2024-02-28T02:42:08;55.22;;;34.20;;
22711;SDS011;11523;50.390;8.072;2024-02-28T02:44:34;54.38;;;33.45;;
22711;SDS011;11523;50.390;8.072;2024-02-28T02:46:59;55.78;;;34.55;;
22711;SDS011;11523;50.390;8.072;2024-02-28T02:49:25;58.55;;;35.28;;
22711;SDS011;11523;50.390;8.072;2024-02-28T02:51:51;57.45;;;34.58;;
22711;SDS011;11523;50.390;8.072;2024-02-28T02:54:18;53.78;;;32.78;;
22711;SDS011;11523;50.390;8.072;2024-02-28T02:56:44;60.33;;;35.15;;
22711;SDS011;11523;50.390;8.072;2024-02-28T02:59:10;55.75;;;34.58;;
22711;SDS011;11523;50.390;8.072;2024-02-28T03:01:37;57.28;;;34.78;;
22711;SDS011;11523;50.390;8.072;2024-02-28T03:04:10;44.78;;;25.35;;
22711;SDS011;11523;50.390;8.072;2024-02-28T03:06:42;58.15;;;35.65;;
22711;SDS011;11523;50.390;8.072;2024-02-28T03:09:08;60.40;;;35.92;;
22711;SDS011;11523;50.390;8.072;2024-02-28T03:11:34;58.80;;;36.47;;
22711;SDS011;11523;50.390;8.072;2024-02-28T03:14:00;63.85;;;38.25;;
22711;SDS011;11523;50.390;8.072;2024-02-28T03:16:27;62.78;;;37.67;;
22711;SDS011;11523;50.390;8.072;2024-02-28T03:18:54;61.60;;;35.90;;
22711;SDS011;11523;50.390;8.072;2024-02-28T03:21:20;61.03;;;35.10;;
22711;SDS011;11523;50.390;8.072;2024-02-28T03:23:46;60.10;;;35.47;;
22711;SDS011;11523;50.390;8.072;2024-02-28T03:26:12;59.08;;;35.30;;
22711;SDS011;11523;50.390;8.072;2024-02-28T03:28:38;54.78;;;32.22;;
22711;SDS011;11523;50.390;8.072;2024-02-28T03:31:04;58.47;;;34.22;;
22711;SDS011;11523;50.390;8.072;2024-02-28T03:33:30;57.22;;;32.78;;
22711;SDS011;11523;50.390;8.072;2024-02-28T03:35:57;61.63;;;35.63;;
22711;SDS011;11523;50.390;8.072;2024-02-28T03:38:23;59.03;;;32.30;;
22711;SDS011;11523;50.390;8.072;2024-02-28T03:40:49;56.30;;;33.38;;
22711;SDS011;11523;50.390;8.072;2024-02-28T03:43:15;60.38;;;33.75;;
22711;SDS011;11523;50.390;8.072;2024-02-28T03:45:41;59.38;;;32.28;;
22711;SDS011;11523;50.390;8.072;2024-02-28T03:48:07;59.10;;;33.72;;
22711;SDS011;11523;50.390;8.072;2024-02-28T03:50:33;60.47;;;34.92;;
22711;SDS011;11523;50.390;8.072;2024-02-28T03:52:59;60.03;;;33.42;;
22711;SDS011;11523;50.390;8.072;2024-02-28T03:55:25;59.97;;;34.40;;
22711;SDS011;11523;50.390;8.072;2024-02-28T03:57:51;58.80;;;33.72;;
22711;SDS011;11523;50.390;8.072;2024-02-28T04:00:17;60.15;;;36.28;;
22711;SDS011;11523;50.390;8.072;2024-02-28T04:02:43;58.75;;;34.15;;
22711;SDS011;11523;50.390;8.072;2024-02-28T04:05:15;60.17;;;34.50;;
22711;SDS011;11523;50.390;8.072;2024-02-28T04:07:42;59.95;;;35.85;;
22711;SDS011;11523;50.390;8.072;2024-02-28T04:10:08;58.17;;;34.03;;
22711;SDS011;11523;50.390;8.072;2024-02-28T04:12:36;64.93;;;35.85;;
22711;SDS011;11523;50.390;8.072;2024-02-28T04:15:02;60.03;;;33.63;;
22711;SDS011;11523;50.390;8.072;2024-02-28T04:17:28;56.13;;;32.78;;
22711;SDS011;11523;50.390;8.072;2024-02-28T04:19:54;60.10;;;33.90;;
22711;SDS011;11523;50.390;8.072;2024-02-28T04:22:22;60.97;;;33.55;;
22711;SDS011;11523;50.390;8.072;2024-02-28T04:24:48;57.22;;;32.63;;
22711;SDS011;11523;50.390;8.072;2024-02-28T04:27:14;58.95;;;32.70;;
22711;SDS011;11523;50.390;8.072;2024-02-28T04:29:40;55.00;;;31.38;;
22711;SDS011;11523;50.390;8.072;2024-02-28T04:32:06;53.58;;;30.02;;
22711;SDS011;11523;50.390;8.072;2024-02-28T04:34:32;55.50;;;31.20;;
22711;SDS011;11523;50.390;8.072;2024-02-28T04:36:58;49.75;;;30.35;;
22711;SDS011;11523;50.390;8.072;2024-02-28T04:39:24;45.95;;;28.98;;
22711;SDS011;11523;50.390;8.072;2024-02-28T04:41:50;50.38;;;29.40;;
22711;SDS011;11523;50.390;8.072;2024-02-28T04:44:16;49.28;;;29.17;;
22711;SDS011;11523;50.390;8.072;2024-02-28T04:46:42;50.95;;;29.60;;
22711;SDS011;11523;50.390;8.072;2024-02-28T04:49:08;51.30;;;29.83;;
22711;SDS011;11523;50.390;8.072;2024-02-28T04:51:34;51.03;;;30.10;;
22711;SDS011;11523;50.390;8.072;2024-02-28T04:54:00;54.38;;;30.80;;
22711;SDS011;11523;50.390;8.072;2024-02-28T04:56:26;53.35;;;30.20;;
22711;SDS011;11523;50.390;8.072;2024-02-28T04:58:51;54.10;;;29.58;;
22711;SDS011;11523;50.390;8.072;2024-02-28T05:01:17;53.17;;;29.50;;
22711;SDS011;11523;50.390;8.072;2024-02-28T05:03:43;55.58;;;31.58;;
22711;SDS011;11523;50.390;8.072;2024-02-28T05:06:09;52.80;;;28.90;;
22711;SDS011;11523;50.390;8.072;2024-02-28T05:08:38;51.72;;;28.38;;
22711;SDS011;11523;50.390;8.072;2024-02-28T05:11:04;59.72;;;31.77;;
22711;SDS011;11523;50.390;8.072;2024-02-28T05:13:30;56.78;;;31.80;;
22711;SDS011;11523;50.390;8.072;2024-02-28T05:15:56;55.05;;;31.00;;
22711;SDS011;11523;50.390;8.072;2024-02-28T05:18:22;55.95;;;31.52;;
22711;SDS011;11523;50.390;8.072;2024-02-28T05:20:48;56.90;;;32.97;;
22711;SDS011;11523;50.390;8.072;2024-02-28T05:23:14;57.30;;;30.67;;
22711;SDS011;11523;50.390;8.072;2024-02-28T05:25:40;55.72;;;31.38;;
22711;SDS011;11523;50.390;8.072;2024-02-28T05:28:06;57.22;;;31.45;;
22711;SDS011;11523;50.390;8.072;2024-02-28T05:30:32;56.63;;;29.55;;
22711;SDS011;11523;50.390;8.072;2024-02-28T05:32:58;55.63;;;28.30;;
22711;SDS011;11523;50.390;8.072;2024-02-28T05:35:24;52.83;;;28.30;;
22711;SDS011;11523;50.390;8.072;2024-02-28T05:37:52;51.40;;;28.10;;
22711;SDS011;11523;50.390;8.072;2024-02-28T05:40:19;57.50;;;30.27;;
22711;SDS011;11523;50.390;8.072;2024-02-28T05:42:45;51.55;;;29.42;;
22711;SDS011;11523;50.390;8.072;2024-02-28T05:45:11;52.38;;;29.23;;
22711;SDS011;11523;50.390;8.072;2024-02-28T05:47:37;51.75;;;28.80;;
22711;SDS011;11523;50.390;8.072;2024-02-28T05:50:03;50.60;;;28.90;;
22711;SDS011;11523;50.390;8.072;2024-02-28T05:52:30;53.80;;;29.13;;
22711;SDS011;11523;50.390;8.072;2024-02-28T05:54:56;51.45;;;29.17;;
22711;SDS011;11523;50.390;8.072;2024-02-28T05:57:22;51.33;;;27.98;;
22711;SDS011;11523;50.390;8.072;2024-02-28T05:59:48;53.85;;;29.17;;
22711;SDS011;11523;50.390;8.072;2024-02-28T06:02:14;51.08;;;28.83;;
22711;SDS011;11523;50.390;8.072;2024-02-28T06:04:40;53.97;;;30.27;;
22711;SDS011;11523;50.390;8.072;2024-02-28T06:07:06;50.88;;;30.27;;
22711;SDS011;11523;50.390;8.072;2024-02-28T06:09:32;53.20;;;30.63;;
22711;SDS011;11523;50.390;8.072;2024-02-28T06:11:58;56.30;;;29.73;;
22711;SDS011;11523;50.390;8.072;2024-02-28T06:14:30;59.17;;;30.67;;
22711;SDS011;11523;50.390;8.072;2024-02-28T06:16:56;56.75;;;30.60;;
22711;SDS011;11523;50.390;8.072;2024-02-28T06:19:22;64.20;;;33.35;;
22711;SDS011;11523;50.390;8.072;2024-02-28T06:21:48;55.63;;;30.38;;
22711;SDS011;11523;50.390;8.072;2024-02-28T06:24:15;55.90;;;30.45;;
22711;SDS011;11523;50.390;8.072;2024-02-28T06:26:41;57.05;;;31.13;;
22711;SDS011;11523;50.390;8.072;2024-02-28T06:29:08;54.03;;;30.02;;
22711;SDS011;11523;50.390;8.072;2024-02-28T06:31:34;53.65;;;28.58;;
22711;SDS011;11523;50.390;8.072;2024-02-28T06:34:00;57.05;;;31.17;;
22711;SDS011;11523;50.390;8.072;2024-02-28T06:36:27;57.55;;;28.52;;
22711;SDS011;11523;50.390;8.072;2024-02-28T06:38:53;51.17;;;28.48;;
22711;SDS011;11523;50.390;8.072;2024-02-28T06:41:19;52.30;;;28.73;;
22711;SDS011;11523;50.390;8.072;2024-02-28T06:43:45;48.83;;;27.60;;
22711;SDS011;11523;50.390;8.072;2024-02-28T06:46:11;51.03;;;29.90;;
22711;SDS011;11523;50.390;8.072;2024-02-28T06:48:37;55.58;;;30.02;;
22711;SDS011;11523;50.390;8.072;2024-02-28T06:51:03;52.92;;;29.38;;
22711;SDS011;11523;50.390;8.072;2024-02-28T06:53:29;52.45;;;29.02;;
22711;SDS011;11523;50.390;8.072;2024-02-28T06:55:55;49.47;;;28.55;;
22711;SDS011;11523;50.390;8.072;2024-02-28T06:58:21;56.40;;;28.13;;
22711;SDS011;11523;50.390;8.072;2024-02-28T07:00:49;56.28;;;30.55;;
22711;SDS011;11523;50.390;8.072;2024-02-28T07:03:16;57.78;;;28.65;;
22711;SDS011;11523;50.390;8.072;2024-02-28T07:05:42;55.83;;;30.60;;
22711;SDS011;11523;50.390;8.072;2024-02-28T07:08:08;57.15;;;29.88;;
22711;SDS011;11523;50.390;8.072;2024-02-28T07:10:36;51.38;;;29.85;;
22711;SDS011;11523;50.390;8.072;2024-02-28T07:13:02;54.95;;;30.65;;
22711;SDS011;11523;50.390;8.072;2024-02-28T07:15:34;53.45;;;29.95;;
22711;SDS011;11523;50.390;8.072;2024-02-28T07:18:00;54.70;;;29.85;;
22711;SDS011;11523;50.390;8.072;2024-02-28T07:20:26;56.00;;;29.65;;
22711;SDS011;11523;50.390;8.072;2024-02-28T07:22:52;55.65;;;30.88;;
22711;SDS011;11523;50.390;8.072;2024-02-28T07:25:18;55.88;;;31.17;;
22711;SDS011;11523;50.390;8.072;2024-02-28T07:27:44;55.08;;;30.80;;
22711;SDS011;11523;50.390;8.072;2024-02-28T07:30:10;58.95;;;32.60;;
22711;SDS011;11523;50.390;8.072;2024-02-28T07:32:36;57.78;;;30.80;;
22711;SDS011;11523;50.390;8.072;2024-02-28T07:35:02;55.70;;;29.35;;
22711;SDS011;11523;50.390;8.072;2024-02-28T07:37:28;59.47;;;30.92;;
22711;SDS011;11523;50.390;8.072;2024-02-28T07:39:54;57.75;;;31.15;;
22711;SDS011;11523;50.390;8.072;2024-02-28T07:42:20;54.10;;;27.52;;
22711;SDS011;11523;50.390;8.072;2024-02-28T07:44:46;54.53;;;30.90;;
22711;SDS011;11523;50.390;8.072;2024-02-28T07:47:12;55.47;;;30.30;;
22711;SDS011;11523;50.390;8.072;2024-02-28T07:49:39;49.75;;;27.67;;
22711;SDS011;11523;50.390;8.072;2024-02-28T07:52:05;51.08;;;28.42;;
22711;SDS011;11523;50.390;8.072;2024-02-28T07:54:31;56.40;;;31.00;;
22711;SDS011;11523;50.390;8.072;2024-02-28T07:56:57;53.60;;;28.17;;
22711;SDS011;11523;50.390;8.072;2024-02-28T07:59:24;56.30;;;28.38;;
22711;SDS011;11523;50.390;8.072;2024-02-28T08:01:50;53.80;;;29.30;;
22711;SDS011;11523;50.390;8.072;2024-02-28T08:04:15;50.50;;;28.88;;
22711;SDS011;11523;50.390;8.072;2024-02-28T08:06:41;55.63;;;28.88;;
22711;SDS011;11523;50.390;8.072;2024-02-28T08:09:08;54.90;;;27.17;;
22711;SDS011;11523;50.390;8.072;2024-02-28T08:11:34;50.90;;;27.52;;
22711;SDS011;11523;50.390;8.072;2024-02-28T08:14:00;47.55;;;27.67;;
22711;SDS011;11523;50.390;8.072;2024-02-28T08:16:25;51.97;;;25.40;;
22711;SDS011;11523;50.390;8.072;2024-02-28T08:18:51;50.38;;;26.38;;
22711;SDS011;11523;50.390;8.072;2024-02-28T08:21:17;51.00;;;26.50;;
22711;SDS011;11523;50.390;8.072;2024-02-28T08:23:44;52.42;;;27.42;;
22711;SDS011;11523;50.390;8.072;2024-02-28T08:26:10;46.33;;;26.73;;
22711;SDS011;11523;50.390;8.072;2024-02-28T08:28:36;52.45;;;27.00;;
22711;SDS011;11523;50.390;8.072;2024-02-28T08:31:02;52.60;;;28.38;;
22711;SDS011;11523;50.390;8.072;2024-02-28T08:33:28;50.55;;;26.48;;
22711;SDS011;11523;50.390;8.072;2024-02-28T08:35:54;51.03;;;29.55;;
22711;SDS011;11523;50.390;8.072;2024-02-28T08:38:20;50.75;;;28.48;;
22711;SDS011;11523;50.390;8.072;2024-02-28T08:40:46;49.85;;;27.70;;
22711;SDS011;11523;50.390;8.072;2024-02-28T08:43:12;47.17;;;25.60;;
22711;SDS011;11523;50.390;8.072;2024-02-28T08:45:38;42.72;;;23.67;;
22711;SDS011;11523;50.390;8.072;2024-02-28T08:48:05;47.22;;;26.33;;
22711;SDS011;11523;50.390;8.072;2024-02-28T08:50:31;45.92;;;26.00;;
22711;SDS011;11523;50.390;8.072;2024-02-28T08:52:57;45.33;;;25.48;;
22711;SDS011;11523;50.390;8.072;2024-02-28T08:55:23;43.58;;;24.05;;
22711;SDS011;11523;50.390;8.072;2024-02-28T08:57:49;44.40;;;24.90;;
22711;SDS011;11523;50.390;8.072;2024-02-28T09:00:15;44.78;;;24.10;;
22711;SDS011;11523;50.390;8.072;2024-02-28T09:02:41;44.35;;;22.70;;
22711;SDS011;11523;50.390;8.072;2024-02-28T09:05:07;46.53;;;25.17;;
22711;SDS011;11523;50.390;8.072;2024-02-28T09:07:34;42.17;;;24.98;;
22711;SDS011;11523;50.390;8.072;2024-02-28T09:10:03;49.67;;;25.60;;
22711;SDS011;11523;50.390;8.072;2024-02-28T09:12:29;44.38;;;23.98;;
22711;SDS011;11523;50.390;8.072;2024-02-28T09:14:55;44.22;;;23.00;;
22711;SDS011;11523;50.390;8.072;2024-02-28T09:17:22;47.45;;;26.20;;
22711;SDS011;11523;50.390;8.072;2024-02-28T09:19:48;48.03;;;26.88;;
22711;SDS011;11523;50.390;8.072;2024-02-28T09:22:14;44.28;;;24.45;;
22711;SDS011;11523;50.390;8.072;2024-02-28T09:24:42;42.33;;;23.88;;
22711;SDS011;11523;50.390;8.072;2024-02-28T09:27:07;45.95;;;23.42;;
22711;SDS011;11523;50.390;8.072;2024-02-28T09:29:33;45.40;;;25.40;;
22711;SDS011;11523;50.390;8.072;2024-02-28T09:31:59;44.67;;;25.67;;
22711;SDS011;11523;50.390;8.072;2024-02-28T09:34:25;42.50;;;25.05;;
22711;SDS011;11523;50.390;8.072;2024-02-28T09:36:52;43.30;;;25.17;;
22711;SDS011;11523;50.390;8.072;2024-02-28T09:39:17;41.40;;;23.83;;
22711;SDS011;11523;50.390;8.072;2024-02-28T09:41:43;40.75;;;22.40;;
22711;SDS011;11523;50.390;8.072;2024-02-28T09:44:09;45.85;;;24.77;;
22711;SDS011;11523;50.390;8.072;2024-02-28T09:46:37;41.83;;;22.33;;
22711;SDS011;11523;50.390;8.072;2024-02-28T09:49:04;43.72;;;24.33;;
22711;SDS011;11523;50.390;8.072;2024-02-28T09:51:36;43.38;;;24.52;;
22711;SDS011;11523;50.390;8.072;2024-02-28T09:54:05;43.97;;;25.65;;
22711;SDS011;11523;50.390;8.072;2024-02-28T09:56:32;41.80;;;22.90;;
22711;SDS011;11523;50.390;8.072;2024-02-28T09:59:01;42.25;;;24.30;;
22711;SDS011;11523;50.390;8.072;2024-02-28T10:01:28;41.13;;;23.38;;
22711;SDS011;11523;50.390;8.072;2024-02-28T10:03:54;40.35;;;23.25;;
22711;SDS011;11523;50.390;8.072;2024-02-28T10:06:24;43.10;;;26.00;;
22711;SDS011;11523;50.390;8.072;2024-02-28T10:08:50;43.55;;;24.52;;
22711;SDS011;11523;50.390;8.072;2024-02-28T10:11:23;42.35;;;24.42;;
22711;SDS011;11523;50.390;8.072;2024-02-28T10:13:49;39.78;;;22.00;;
22711;SDS011;11523;50.390;8.072;2024-02-28T10:16:16;42.35;;;21.45;;
22711;SDS011;11523;50.390;8.072;2024-02-28T10:18:45;44.45;;;23.95;;
22711;SDS011;11523;50.390;8.072;2024-02-28T10:21:11;45.67;;;25.25;;
22711;SDS011;11523;50.390;8.072;2024-02-28T10:23:40;43.88;;;23.67;;
22711;SDS011;11523;50.390;8.072;2024-02-28T10:26:08;42.17;;;24.92;;
22711;SDS011;11523;50.390;8.072;2024-02-28T10:28:36;47.80;;;26.33;;
22711;SDS011;11523;50.390;8.072;2024-02-28T10:31:02;42.95;;;24.73;;
22711;SDS011;11523;50.390;8.072;2024-02-28T10:33:29;43.92;;;23.63;;
22711;SDS011;11523;50.390;8.072;2024-02-28T10:35:55;42.72;;;24.73;;
22711;SDS011;11523;50.390;8.072;2024-02-28T10:38:21;46.17;;;24.92;;
22711;SDS011;11523;50.390;8.072;2024-02-28T10:40:47;45.08;;;24.20;;
22711;SDS011;11523;50.390;8.072;2024-02-28T10:43:13;43.50;;;25.70;;
22711;SDS011;11523;50.390;8.072;2024-02-28T10:45:42;45.85;;;25.45;;
22711;SDS011;11523;50.390;8.072;2024-02-28T10:48:08;44.22;;;25.67;;
22711;SDS011;11523;50.390;8.072;2024-02-28T10:50:35;44.42;;;23.80;;
22711;SDS011;11523;50.390;8.072;2024-02-28T10:53:04;44.33;;;25.08;;
22711;SDS011;11523;50.390;8.072;2024-02-28T10:55:36;47.23;;;26.57;;
22711;SDS011;11523;50.390;8.072;2024-02-28T10:58:08;42.70;;;23.02;;
22711;SDS011;11523;50.390;8.072;2024-02-28T11:00:38;45.28;;;24.83;;
22711;SDS011;11523;50.390;8.072;2024-02-28T11:03:06;43.03;;;24.85;;
22711;SDS011;11523;50.390;8.072;2024-02-28T11:05:39;47.65;;;24.70;;
22711;SDS011;11523;50.390;8.072;2024-02-28T11:08:11;43.35;;;24.50;;
22711;SDS011;11523;50.390;8.072;2024-02-28T11:10:41;37.70;;;23.52;;
22711;SDS011;11523;50.390;8.072;2024-02-28T11:13:07;40.50;;;24.50;;
22711;SDS011;11523;50.390;8.072;2024-02-28T11:15:35;45.15;;;22.85;;
22711;SDS011;11523;50.390;8.072;2024-02-28T11:18:08;41.95;;;22.77;;
22711;SDS011;11523;50.390;8.072;2024-02-28T11:20:34;41.55;;;23.80;;
22711;SDS011;11523;50.390;8.072;2024-02-28T11:23:01;39.65;;;23.17;;
22711;SDS011;11523;50.390;8.072;2024-02-28T11:25:27;41.92;;;23.55;;
22711;SDS011;11523;50.390;8.072;2024-02-28T11:27:53;39.67;;;23.02;;
22711;SDS011;11523;50.390;8.072;2024-02-28T11:30:19;37.67;;;21.60;;
22711;SDS011;11523;50.390;8.072;2024-02-28T11:32:45;40.38;;;21.48;;
22711;SDS011;11523;50.390;8.072;2024-02-28T11:35:12;41.38;;;23.92;;
22711;SDS011;11523;50.390;8.072;2024-02-28T11:37:38;35.45;;;21.25;;
22711;SDS011;11523;50.390;8.072;2024-02-28T11:40:08;38.33;;;21.33;;
22711;SDS011;11523;50.390;8.072;2024-02-28T11:42:37;41.92;;;24.48;;
22711;SDS011;11523;50.390;8.072;2024-02-28T11:45:04;35.60;;;21.58;;
22711;SDS011;11523;50.390;8.072;2024-02-28T11:47:31;37.15;;;22.15;;
22711;SDS011;11523;50.390;8.072;2024-02-28T11:50:01;41.28;;;22.58;;
22711;SDS011;11523;50.390;8.072;2024-02-28T11:52:28;37.53;;;23.48;;
22711;SDS011;11523;50.390;8.072;2024-02-28T11:54:55;39.60;;;24.83;;
22711;SDS011;11523;50.390;8.072;2024-02-28T11:57:21;33.00;;;18.90;;
22711;SDS011;11523;50.390;8.072;2024-02-28T11:59:47;41.75;;;23.40;;
22711;SDS011;11523;50.390;8.072;2024-02-28T12:02:14;32.83;;;21.90;;
22711;SDS011;11523;50.390;8.072;2024-02-28T12:04:44;37.17;;;21.55;;
22711;SDS011;11523;50.390;8.072;2024-02-28T12:07:10;35.00;;;20.63;;
22711;SDS011;11523;50.390;8.072;2024-02-28T12:09:37;33.28;;;20.05;;
22711;SDS011;11523;50.390;8.072;2024-02-28T12:12:06;35.05;;;21.85;;
22711;SDS011;11523;50.390;8.072;2024-02-28T12:14:36;36.13;;;24.63;;
22711;SDS011;11523;50.390;8.072;2024-02-28T12:17:02;35.08;;;23.73;;
22711;SDS011;11523;50.390;8.072;2024-02-28T12:19:29;35.53;;;23.65;;
22711;SDS011;11523;50.390;8.072;2024-02-28T12:21:55;33.72;;;22.13;;
22711;SDS011;11523;50.390;8.072;2024-02-28T12:24:21;35.03;;;22.55;;
22711;SDS011;11523;50.390;8.072;2024-02-28T12:26:47;34.58;;;23.13;;
22711;SDS011;11523;50.390;8.072;2024-02-28T12:29:13;37.13;;;26.85;;
22711;SDS011;11523;50.390;8.072;2024-02-28T12:31:39;35.80;;;25.90;;
22711;SDS011;11523;50.390;8.072;2024-02-28T12:34:05;36.63;;;25.17;;
22711;SDS011;11523;50.390;8.072;2024-02-28T12:36:31;32.97;;;21.48;;
22711;SDS011;11523;50.390;8.072;2024-02-28T12:38:57;34.03;;;24.00;;
22711;SDS011;11523;50.390;8.072;2024-02-28T12:41:24;33.75;;;22.88;;
22711;SDS011;11523;50.390;8.072;2024-02-28T12:43:50;33.20;;;22.63;;
22711;SDS011;11523;50.390;8.072;2024-02-28T12:46:16;31.33;;;21.90;;
22711;SDS011;11523;50.390;8.072;2024-02-28T12:48:42;32.00;;;21.63;;
22711;SDS011;11523;50.390;8.072;2024-02-28T12:51:20;35.63;;;25.05;;
22711;SDS011;11523;50.390;8.072;2024-02-28T12:53:58;38.58;;;25.85;;
22711;SDS011;11523;50.390;8.072;2024-02-28T12:56:24;32.70;;;23.40;;
22711;SDS011;11523;50.390;8.072;2024-02-28T12:58:50;33.03;;;23.55;;
22711;SDS011;11523;50.390;8.072;2024-02-28T13:01:15;35.22;;;23.83;;
22711;SDS011;11523;50.390;8.072;2024-02-28T13:03:42;33.30;;;23.95;;
22711;SDS011;11523;50.390;8.072;2024-02-28T13:06:08;34.00;;;24.05;;
22711;SDS011;11523;50.390;8.072;2024-02-28T13:08:33;34.72;;;24.20;;
22711;SDS011;11523;50.390;8.072;2024-02-28T13:10:59;35.42;;;25.67;;
22711;SDS011;11523;50.390;8.072;2024-02-28T13:13:26;34.83;;;26.05;;
22711;SDS011;11523;50.390;8.072;2024-02-28T13:15:58;35.47;;;25.23;;
22711;SDS011;11523;50.390;8.072;2024-02-28T13:18:24;37.72;;;24.08;;
22711;SDS011;11523;50.390;8.072;2024-02-28T13:20:50;34.80;;;23.83;;
22711;SDS011;11523;50.390;8.072;2024-02-28T13:23:17;34.40;;;24.17;;
22711;SDS011;11523;50.390;8.072;2024-02-28T13:25:43;33.33;;;26.23;;
22711;SDS011;11523;50.390;8.072;2024-02-28T13:28:09;34.15;;;24.23;;
22711;SDS011;11523;50.390;8.072;2024-02-28T13:30:36;31.98;;;23.13;;
22711;SDS011;11523;50.390;8.072;2024-02-28T13:33:05;35.17;;;25.67;;
22711;SDS011;11523;50.390;8.072;2024-02-28T13:35:37;34.55;;;23.73;;
22711;SDS011;11523;50.390;8.072;2024-02-28T13:38:03;31.17;;;23.20;;
22711;SDS011;11523;50.390;8.072;2024-02-28T13:40:29;32.15;;;24.58;;
22711;SDS011;11523;50.390;8.072;2024-02-28T13:42:55;33.20;;;22.52;;
22711;SDS011;11523;50.390;8.072;2024-02-28T13:45:22;36.00;;;25.63;;
22711;SDS011;11523;50.390;8.072;2024-02-28T13:47:48;34.20;;;23.90;;
22711;SDS011;11523;50.390;8.072;2024-02-28T13:50:14;32.40;;;24.15;;
22711;SDS011;11523;50.390;8.072;2024-02-28T13:52:40;29.40;;;21.58;;
22711;SDS011;11523;50.390;8.072;2024-02-28T13:55:06;30.80;;;22.42;;
22711;SDS011;11523;50.390;8.072;2024-02-28T13:57:34;31.00;;;23.08;;
22711;SDS011;11523;50.390;8.072;2024-02-28T14:00:00;31.77;;;22.52;;
22711;SDS011;11523;50.390;8.072;2024-02-28T14:02:26;32.00;;;24.60;;
22711;SDS011;11523;50.390;8.072;2024-02-28T14:04:52;31.48;;;24.58;;
22711;SDS011;11523;50.390;8.072;2024-02-28T14:07:18;33.35;;;24.55;;
22711;SDS011;11523;50.390;8.072;2024-02-28T14:09:44;33.60;;;24.48;;
22711;SDS011;11523;50.390;8.072;2024-02-28T14:12:11;32.25;;;24.63;;
22711;SDS011;11523;50.390;8.072;2024-02-28T14:14:37;30.73;;;23.45;;
22711;SDS011;11523;50.390;8.072;2024-02-28T14:17:04;30.27;;;23.10;;